LIRN/NAP METAR and TAF weather

Enter ICAO airport designator
Station Type Date Time Source
LIRN METAR 2021/04/13 08:20 UTC NOAA

LIRN 130820Z 24013KT 9999 BKN035 14/06 Q1017 NOSIG


Station Type Date Time Source
LIRN Decoded METAR 2021/04/13 08:20 UTC NOAA

Napoli / Capodichino, Italy (LIRN) 40-51N 014-18E 72M
Apr 13, 2021 - 04:20 AM EDT / 2021.04.13 0820 UTC
Wind: from the WSW (240 degrees) at 15 MPH (13 KT):0
Visibility: greater than 7 mile(s):0
Sky conditions: mostly cloudy
Temperature: 57 F (14 C)
Dew Point: 42 F (6 C)
Relative Humidity: 58%
Pressure (altimeter): 30.03 in. Hg (1017 hPa)
ob: LIRN 130820Z 24013KT 9999 BKN035 14/06 Q1017 NOSIG
cycle: 8

Station Type Date Time Source
LIRN TAF 2021/04/13 06:21 UTC NOAA

TAF LIRN 130500Z 1306/1406 23010KT 9999 SCT030
TEMPO 1314/1318 RA
BECMG 1320/1322 05008KT

Example: see airport list